Time,TemperatureF,DewpointF,PressureIn,WindDirection,WindDirectionDegrees,WindSpeedMPH,WindSpeedGustMPH,Humidity,HourlyPrecipIn,Conditions,Clouds,dailyrainin,SoftwareType,DateUTC
2013-05-05 00:00:00,47.3,42.1,30.06,NNE,22,2.2,-999.0,82,-99.99,,,0.00,Acu-Link.com,2013-05-05 05:00:00,
2013-05-05 00:15:00,46.2,42.3,30.06,NNE,22,2.7,-999.0,86,-99.99,,,0.00,Acu-Link.com,2013-05-05 05:15:00,
2013-05-05 00:30:00,45.9,42.2,30.07,NNE,22,3.8,-999.0,87,-99.99,,,0.00,Acu-Link.com,2013-05-05 05:30:00,
2013-05-05 00:45:00,45.3,42.3,30.07,North,0,3.8,-999.0,89,-99.99,,,0.00,Acu-Link.com,2013-05-05 05:45:00,
2013-05-05 01:01:00,45.3,42.6,30.07,NNE,22,5.1,-999.0,90,-99.99,,,0.00,Acu-Link.com,2013-05-05 06:01:00,
2013-05-05 01:16:00,46.2,42.6,30.07,NNW,337,4.3,-999.0,87,-99.99,,,0.00,Acu-Link.com,2013-05-05 06:16:00,
2013-05-05 01:31:00,46.4,42.4,30.07,NNW,337,4.7,-999.0,86,-99.99,,,0.00,Acu-Link.com,2013-05-05 06:31:00,
2013-05-05 01:46:00,45.9,42.2,30.07,NNW,337,5.1,-999.0,87,-99.99,,,0.00,Acu-Link.com,2013-05-05 06:46:00,
2013-05-05 02:01:00,45.3,42.3,30.07,NNW,337,4.7,-999.0,89,-99.99,,,0.00,Acu-Link.com,2013-05-05 07:01:00,
2013-05-05 02:17:00,45.0,42.2,30.08,NNW,337,6.3,-999.0,90,-99.99,,,0.00,Acu-Link.com,2013-05-05 07:17:00,
2013-05-05 02:32:00,44.4,42.0,30.07,NNW,337,4.7,-999.0,91,-99.99,,,0.00,Acu-Link.com,2013-05-05 07:32:00,
2013-05-05 02:47:00,43.2,41.8,30.07,NNE,22,3.8,-999.0,95,-99.99,,,0.00,Acu-Link.com,2013-05-05 07:47:00,
2013-05-05 03:02:00,43.0,41.6,30.07,NNW,337,3.8,-999.0,95,-99.99,,,0.00,Acu-Link.com,2013-05-05 08:02:00,
2013-05-05 03:18:00,42.8,41.2,30.07,NNE,22,3.8,-999.0,94,-99.99,,,0.00,Acu-Link.com,2013-05-05 08:18:00,
2013-05-05 03:33:00,42.6,41.0,30.07,North,0,3.8,-999.0,94,-99.99,,,0.00,Acu-Link.com,2013-05-05 08:33:00,
2013-05-05 03:48:00,42.6,41.0,30.07,NW,315,4.3,-999.0,94,-99.99,,,0.00,Acu-Link.com,2013-05-05 08:48:00,
2013-05-05 04:03:00,42.8,40.6,30.08,NNW,337,3.1,-999.0,92,-99.99,,,0.00,Acu-Link.com,2013-05-05 09:03:00,
2013-05-05 04:18:00,42.1,40.5,30.08,NNW,337,4.3,-999.0,94,-99.99,,,0.00,Acu-Link.com,2013-05-05 09:18:00,
2013-05-05 04:33:00,42.4,41.1,30.08,NNW,337,3.8,-999.0,95,-99.99,,,0.00,Acu-Link.com,2013-05-05 09:33:00,
2013-05-05 04:48:00,42.6,41.0,30.08,West,270,2.7,-999.0,94,-99.99,,,0.00,Acu-Link.com,2013-05-05 09:48:00,
2013-05-05 05:04:00,41.4,40.3,30.10,NW,315,2.7,-999.0,96,-99.99,,,0.00,Acu-Link.com,2013-05-05 10:04:00,
2013-05-05 05:19:00,40.3,39.8,30.10,West,270,0.0,-999.0,98,-99.99,,,0.00,Acu-Link.com,2013-05-05 10:19:00,
2013-05-05 05:34:00,39.4,38.9,30.11,West,270,0.0,-999.0,98,-99.99,,,0.00,Acu-Link.com,2013-05-05 10:34:00,
2013-05-05 05:49:00,39.0,38.5,30.11,WNW,292,0.0,-999.0,98,-99.99,,,0.00,Acu-Link.com,2013-05-05 10:49:00,
2013-05-05 06:05:00,39.2,38.7,30.11,West,270,0.0,-999.0,98,-99.99,,,0.00,Acu-Link.com,2013-05-05 11:05:00,
2013-05-05 06:20:00,39.4,38.9,30.12,West,270,0.0,-999.0,98,-99.99,,,0.00,Acu-Link.com,2013-05-05 11:20:00,
2013-05-05 06:35:00,39.2,38.7,30.12,West,270,0.0,-999.0,98,-99.99,,,0.00,Acu-Link.com,2013-05-05 11:35:00,
2013-05-05 06:50:00,38.7,38.1,30.13,West,270,0.0,-999.0,98,-99.99,,,0.00,Acu-Link.com,2013-05-05 11:50:00,
2013-05-05 07:05:00,39.0,38.5,30.14,WNW,292,0.0,-999.0,98,-99.99,,,0.00,Acu-Link.com,2013-05-05 12:05:00,
2013-05-05 07:21:00,39.7,39.2,30.14,NW,315,3.1,-999.0,98,-99.99,,,0.00,Acu-Link.com,2013-05-05 12:21:00,
2013-05-05 07:36:00,43.2,41.8,30.14,NNW,337,7.4,-999.0,95,-99.99,,,0.00,Acu-Link.com,2013-05-05 12:36:00,
2013-05-05 07:51:00,44.2,41.8,30.16,NW,315,5.8,-999.0,91,-99.99,,,0.00,Acu-Link.com,2013-05-05 12:51:00,
2013-05-05 08:06:00,45.7,42.3,30.16,West,270,6.7,-999.0,88,-99.99,,,0.00,Acu-Link.com,2013-05-05 13:06:00,
2013-05-05 08:21:00,46.6,42.9,30.17,WSW,247,7.4,-999.0,87,-99.99,,,0.00,Acu-Link.com,2013-05-05 13:21:00,
2013-05-05 08:37:00,47.8,43.2,30.17,NNW,337,9.8,-999.0,84,-99.99,,,0.00,Acu-Link.com,2013-05-05 13:37:00,
2013-05-05 08:52:00,49.1,43.8,30.17,NNW,337,7.4,-999.0,82,-99.99,,,0.00,Acu-Link.com,2013-05-05 13:52:00,
2013-05-05 09:07:00,50.2,44.9,30.17,North,0,7.8,-999.0,82,-99.99,,,0.00,Acu-Link.com,2013-05-05 14:07:00,
2013-05-05 09:22:00,50.2,44.9,30.17,NW,315,7.4,-999.0,82,-99.99,,,0.00,Acu-Link.com,2013-05-05 14:22:00,
2013-05-05 09:37:00,50.4,44.8,30.18,NNE,22,7.8,-999.0,81,-99.99,,,0.00,Acu-Link.com,2013-05-05 14:37:00,
2013-05-05 09:53:00,50.9,45.3,30.19,NNW,337,7.8,-999.0,81,-99.99,,,0.00,Acu-Link.com,2013-05-05 14:53:00,
2013-05-05 10:08:00,51.4,45.5,30.19,NNE,22,7.4,-999.0,80,-99.99,,,0.00,Acu-Link.com,2013-05-05 15:08:00,
2013-05-05 10:23:00,52.0,45.7,30.19,NNW,337,7.4,-999.0,79,-99.99,,,0.00,Acu-Link.com,2013-05-05 15:23:00,
2013-05-05 10:38:00,52.5,45.9,30.19,North,0,8.3,-999.0,78,-99.99,,,0.00,Acu-Link.com,2013-05-05 15:38:00,
2013-05-05 10:54:00,52.5,45.9,30.19,North,0,5.8,-999.0,78,-99.99,,,0.00,Acu-Link.com,2013-05-05 15:54:00,
2013-05-05 11:09:00,52.7,46.0,30.19,NNW,337,9.4,-999.0,78,-99.99,,,0.00,Acu-Link.com,2013-05-05 16:09:00,
2013-05-05 11:24:00,54.0,46.2,30.19,NNW,337,5.8,-999.0,75,-99.99,,,0.00,Acu-Link.com,2013-05-05 16:24:00,
2013-05-05 11:39:00,54.3,46.6,30.19,NNE,22,6.3,-999.0,75,-99.99,,,0.00,Acu-Link.com,2013-05-05 16:39:00,
2013-05-05 11:54:00,55.6,46.7,30.20,ENE,67,5.1,-999.0,72,-99.99,,,0.00,Acu-Link.com,2013-05-05 16:54:00,
2013-05-05 12:10:00,59.0,47.7,30.19,ENE,67,7.8,-999.0,66,-99.99,,,0.00,Acu-Link.com,2013-05-05 17:10:00,
2013-05-05 12:25:00,59.5,47.8,30.19,North,0,9.4,-999.0,65,-99.99,,,0.00,Acu-Link.com,2013-05-05 17:25:00,
2013-05-05 12:40:00,59.7,47.5,30.18,NW,315,7.4,-999.0,64,-99.99,,,0.00,Acu-Link.com,2013-05-05 17:40:00,
2013-05-05 12:55:00,59.7,47.5,30.17,NNW,337,8.9,-999.0,64,-99.99,,,0.00,Acu-Link.com,2013-05-05 17:55:00,
2013-05-05 13:10:00,61.9,48.3,30.16,NNE,22,6.7,-999.0,61,-99.99,,,0.00,Acu-Link.com,2013-05-05 18:10:00,
2013-05-05 13:26:00,63.7,48.6,30.15,ENE,67,5.8,-999.0,58,-99.99,,,0.00,Acu-Link.com,2013-05-05 18:26:00,
2013-05-05 13:41:00,65.5,49.4,30.14,NNE,22,8.3,-999.0,56,-99.99,,,0.00,Acu-Link.com,2013-05-05 18:41:00,
2013-05-05 13:56:00,66.9,49.2,30.13,NE,45,11.9,-999.0,53,-99.99,,,0.00,Acu-Link.com,2013-05-05 18:56:00,
2013-05-05 14:11:00,66.0,48.9,30.13,NW,315,5.8,-999.0,54,-99.99,,,0.00,Acu-Link.com,2013-05-05 19:11:00,
2013-05-05 14:26:00,66.6,48.9,30.12,WNW,292,7.8,-999.0,53,-99.99,,,0.00,Acu-Link.com,2013-05-05 19:26:00,
2013-05-05 14:42:00,68.4,49.5,30.11,NNW,337,6.3,-999.0,51,-99.99,,,0.00,Acu-Link.com,2013-05-05 19:42:00,
2013-05-05 14:57:00,69.4,50.0,30.10,North,0,8.3,-999.0,50,-99.99,,,0.00,Acu-Link.com,2013-05-05 19:57:00,
2013-05-05 15:12:00,69.8,49.8,30.09,West,270,6.3,-999.0,49,-99.99,,,0.00,Acu-Link.com,2013-05-05 20:12:00,
2013-05-05 15:27:00,71.6,50.3,30.08,ENE,67,6.3,-999.0,47,-99.99,,,0.00,Acu-Link.com,2013-05-05 20:27:00,
2013-05-05 15:43:00,70.7,50.0,30.07,West,270,5.1,-999.0,48,-99.99,,,0.00,Acu-Link.com,2013-05-05 20:43:00,
2013-05-05 15:58:00,71.8,49.9,30.07,NNE,22,2.2,-999.0,46,-99.99,,,0.00,Acu-Link.com,2013-05-05 20:58:00,
2013-05-05 16:13:00,72.3,49.8,30.07,NNE,22,4.3,-999.0,45,-99.99,,,0.00,Acu-Link.com,2013-05-05 21:13:00,
2013-05-05 16:28:00,71.6,49.7,30.06,North,0,1.6,-999.0,46,-99.99,,,0.00,Acu-Link.com,2013-05-05 21:28:00,
2013-05-05 16:43:00,72.0,49.4,30.06,NNE,22,6.3,-999.0,45,-99.99,,,0.00,Acu-Link.com,2013-05-05 21:43:00,
2013-05-05 16:59:00,73.0,49.8,30.05,NNE,22,6.7,-999.0,44,-99.99,,,0.00,Acu-Link.com,2013-05-05 21:59:00,
2013-05-05 17:14:00,71.8,48.7,30.04,NNW,337,4.3,-999.0,44,-99.99,,,0.00,Acu-Link.com,2013-05-05 22:14:00,
2013-05-05 17:29:00,72.7,49.5,30.05,NNW,337,4.7,-999.0,44,-99.99,,,0.00,Acu-Link.com,2013-05-05 22:29:00,
2013-05-05 17:44:00,74.5,50.5,30.05,NW,315,1.6,-999.0,43,-99.99,,,0.00,Acu-Link.com,2013-05-05 22:44:00,
2013-05-05 17:59:00,75.0,49.7,30.04,WNW,292,5.1,-999.0,41,-99.99,,,0.00,Acu-Link.com,2013-05-05 22:59:00,
2013-05-05 18:15:00,74.8,50.2,30.04,NNE,22,6.3,-999.0,42,-99.99,,,0.00,Acu-Link.com,2013-05-05 23:15:00,
2013-05-05 18:30:00,74.3,49.7,30.04,North,0,2.7,-999.0,42,-99.99,,,0.00,Acu-Link.com,2013-05-05 23:30:00,
2013-05-05 18:45:00,72.3,49.8,30.04,NNW,337,3.1,-999.0,45,-99.99,,,0.00,Acu-Link.com,2013-05-05 23:45:00,
2013-05-05 19:00:00,71.6,49.7,30.03,NE,45,4.3,-999.0,46,-99.99,,,0.00,Acu-Link.com,2013-05-06 00:00:00,
2013-05-05 19:15:00,70.7,50.6,30.03,East,90,3.8,-999.0,49,-99.99,,,0.00,Acu-Link.com,2013-05-06 00:15:00,
2013-05-05 19:31:00,69.1,50.7,30.03,SSE,157,1.1,-999.0,52,-99.99,,,0.00,Acu-Link.com,2013-05-06 00:31:00,
2013-05-05 19:46:00,68.0,51.2,30.03,ENE,67,4.7,-999.0,55,-99.99,,,0.00,Acu-Link.com,2013-05-06 00:46:00,
2013-05-05 20:01:00,66.9,51.2,30.03,NE,45,4.7,-999.0,57,-99.99,,,0.00,Acu-Link.com,2013-05-06 01:01:00,
2013-05-05 20:16:00,65.7,50.9,30.03,East,90,2.7,-999.0,59,-99.99,,,0.00,Acu-Link.com,2013-05-06 01:16:00,
2013-05-05 20:32:00,64.4,50.7,30.03,ESE,112,3.8,-999.0,61,-99.99,,,0.00,Acu-Link.com,2013-05-06 01:32:00,
2013-05-05 20:47:00,63.3,50.5,30.03,ENE,67,3.8,-999.0,63,-99.99,,,0.00,Acu-Link.com,2013-05-06 01:47:00,
2013-05-05 21:02:00,62.1,50.6,30.04,ESE,112,1.1,-999.0,66,-99.99,,,0.00,Acu-Link.com,2013-05-06 02:02:00,
2013-05-05 21:17:00,61.2,50.5,30.04,ESE,112,4.3,-999.0,68,-99.99,,,0.00,Acu-Link.com,2013-05-06 02:17:00,
2013-05-05 21:32:00,60.6,50.8,30.04,ESE,112,2.7,-999.0,70,-99.99,,,0.00,Acu-Link.com,2013-05-06 02:32:00,
2013-05-05 21:48:00,59.9,50.8,30.05,East,90,0.0,-999.0,72,-99.99,,,0.00,Acu-Link.com,2013-05-06 02:48:00,
2013-05-05 22:03:00,58.8,50.5,30.05,ESE,112,0.0,-999.0,74,-99.99,,,0.00,Acu-Link.com,2013-05-06 03:03:00,
2013-05-05 22:18:00,58.5,50.6,30.05,ESE,112,1.6,-999.0,75,-99.99,,,0.00,Acu-Link.com,2013-05-06 03:18:00,
2013-05-05 22:33:00,58.1,50.6,30.05,ESE,112,1.6,-999.0,76,-99.99,,,0.00,Acu-Link.com,2013-05-06 03:33:00,
2013-05-05 22:48:00,57.6,50.8,30.05,ESE,112,2.2,-999.0,78,-99.99,,,0.00,Acu-Link.com,2013-05-06 03:48:00,
2013-05-05 23:04:00,56.8,50.7,30.06,ENE,67,0.0,-999.0,80,-99.99,,,0.00,Acu-Link.com,2013-05-06 04:04:00,
2013-05-05 23:19:00,56.1,50.7,30.06,SE,135,4.3,-999.0,82,-99.99,,,0.00,Acu-Link.com,2013-05-06 04:19:00,
2013-05-05 23:34:00,55.9,50.5,30.07,ESE,112,4.7,-999.0,82,-99.99,,,0.00,Acu-Link.com,2013-05-06 04:34:00,
2013-05-05 23:49:00,55.9,50.9,30.07,SSE,157,5.8,-999.0,83,-99.99,,,0.00,Acu-Link.com,2013-05-06 04:49:00,